Time;durP1;ratioP1;P1;durP2;ratioP2;P2;SDS_P1;SDS_P2;PMS_P1;PMS_P2;Temp;Humidity;BMP_temperature;BMP_pressure;BME280_temperature;BME280_humidity;BME280_pressure;Samples;Min_cycle;Max_cycle;Signal;HPM_P1;HPM_P2
2021/03/19 00:02:09;;;;;;;13.52;9.48;;;1.70;99.90;;;;;;5047140;28;20100;-67
2021/03/19 00:04:34;;;;;;;15.30;10.02;;;1.80;99.90;;;;;;5039761;28;20030;-68
2021/03/19 00:07:00;;;;;;;13.43;10.15;;;1.80;99.90;;;;;;5050979;28;20053;-68
2021/03/19 00:09:26;;;;;;;14.18;9.65;;;1.80;99.90;;;;;;5051081;28;20028;-67
2021/03/19 00:11:52;;;;;;;13.52;10.00;;;1.80;99.90;;;;;;5051293;28;20024;-67
2021/03/19 00:14:18;;;;;;;14.45;9.73;;;1.80;99.90;;;;;;5050315;28;20040;-70
2021/03/19 00:16:44;;;;;;;13.68;9.73;;;1.70;99.90;;;;;;5050535;28;20034;-68
2021/03/19 00:19:10;;;;;;;12.38;9.82;;;1.80;99.90;;;;;;5051203;28;20123;-68
2021/03/19 00:21:37;;;;;;;14.80;9.60;;;1.80;99.90;;;;;;5051686;28;20025;-68
2021/03/19 00:24:03;;;;;;;14.15;9.65;;;1.90;99.90;;;;;;5049485;28;20180;-68
2021/03/19 00:26:29;;;;;;;12.80;9.57;;;1.90;99.90;;;;;;5049569;28;20029;-67
2021/03/19 00:28:54;;;;;;;11.70;8.70;;;2.00;99.90;;;;;;5050484;28;20025;-67
2021/03/19 00:31:20;;;;;;;11.80;8.93;;;2.10;99.90;;;;;;5051258;28;20108;-67
2021/03/19 00:33:46;;;;;;;12.65;8.55;;;2.20;99.90;;;;;;5030832;28;20057;-67
2021/03/19 00:36:12;;;;;;;11.48;8.32;;;2.20;99.90;;;;;;5076800;28;20073;-66
2021/03/19 00:38:37;;;;;;;13.10;8.63;;;2.20;99.90;;;;;;5051251;28;20036;-66
2021/03/19 00:41:04;;;;;;;11.60;8.73;;;2.30;99.90;;;;;;5051751;28;20025;-67
2021/03/19 00:43:30;;;;;;;12.60;8.80;;;2.30;99.90;;;;;;5039983;28;20044;-67
2021/03/19 00:45:55;;;;;;;11.27;8.18;;;2.20;99.90;;;;;;5032393;28;20026;-67
2021/03/19 00:48:21;;;;;;;11.80;8.23;;;2.20;99.90;;;;;;5033507;28;20024;-67
2021/03/19 00:50:47;;;;;;;11.25;7.80;;;2.20;99.90;;;;;;5042326;28;20036;-68
2021/03/19 00:53:13;;;;;;;14.55;9.40;;;2.20;99.90;;;;;;5051908;28;20025;-67
2021/03/19 00:55:39;;;;;;;11.50;8.55;;;2.10;99.90;;;;;;5051205;28;20033;-68
2021/03/19 00:58:05;;;;;;;13.55;9.23;;;2.00;99.90;;;;;;5050931;28;20379;-68
2021/03/19 01:00:34;;;;;;;13.18;8.95;;;2.00;99.90;;;;;;5048280;28;20039;-67
2021/03/19 01:03:01;;;;;;;15.27;10.52;;;2.00;99.90;;;;;;5050050;28;20033;-67
2021/03/19 01:05:34;;;;;;;15.23;9.70;;;2.00;99.90;;;;;;5056767;28;20085;-67
2021/03/19 01:08:03;;;;;;;15.95;9.18;;;2.00;99.90;;;;;;5058273;28;20032;-67
2021/03/19 01:10:51;;;;;;;11.82;9.10;;;1.90;99.90;;;;;;5058122;28;20044;-67
2021/03/19 01:13:17;;;;;;;15.02;10.30;;;1.80;99.90;;;;;;5039154;28;20045;-67
2021/03/19 01:15:43;;;;;;;15.48;9.90;;;1.70;99.90;;;;;;5047096;28;20386;-67
2021/03/19 01:18:15;;;;;;;15.70;10.80;;;1.70;99.90;;;;;;5054247;28;20033;-67
2021/03/19 01:20:42;;;;;;;15.95;10.88;;;1.70;99.90;;;;;;5055540;28;20021;-67
2021/03/19 01:23:09;;;;;;;14.30;10.35;;;1.90;99.90;;;;;;5052462;28;20490;-66
2021/03/19 01:25:35;;;;;;;13.60;10.05;;;1.70;99.90;;;;;;5054679;28;20086;-66
2021/03/19 01:28:01;;;;;;;11.60;9.55;;;1.80;99.90;;;;;;5054995;28;20032;-66
2021/03/19 01:30:29;;;;;;;14.25;9.93;;;1.70;99.90;;;;;;5054461;28;20775;-67
2021/03/19 01:32:54;;;;;;;16.13;10.18;;;1.70;99.90;;;;;;5052540;28;20029;-66
2021/03/19 01:35:22;;;;;;;13.40;9.40;;;1.70;99.90;;;;;;5053291;28;20395;-67
2021/03/19 01:37:49;;;;;;;13.18;10.25;;;1.50;99.90;;;;;;5034209;28;20025;-67
2021/03/19 01:40:17;;;;;;;13.45;9.98;;;1.50;99.90;;;;;;5052446;28;20036;-68
2021/03/19 01:43:18;;;;;;;15.27;10.48;;;1.50;99.90;;;;;;5052311;28;20037;-67
2021/03/19 01:46:21;;;;;;;13.63;10.60;;;1.40;99.90;;;;;;5051945;28;20013;-68
2021/03/19 01:49:26;;;;;;;13.73;10.38;;;1.40;99.90;;;;;;5056435;28;20077;-66
2021/03/19 01:52:29;;;;;;;15.73;10.05;;;1.40;99.90;;;;;;5061504;28;20021;-67
2021/03/19 01:55:32;;;;;;;15.70;10.45;;;1.30;99.90;;;;;;5053107;28;20035;-67
2021/03/19 01:58:35;;;;;;;15.05;11.20;;;1.30;99.90;;;;;;5041744;28;20033;-67
2021/03/19 02:01:38;;;;;;;16.27;11.45;;;1.40;99.90;;;;;;5035218;28;20034;-67
2021/03/19 02:04:41;;;;;;;15.95;10.98;;;1.40;99.90;;;;;;5054489;28;20024;-67
2021/03/19 02:07:44;;;;;;;16.17;11.30;;;1.30;99.90;;;;;;5074165;28;20033;-68
2021/03/19 02:10:47;;;;;;;16.63;11.50;;;1.30;99.90;;;;;;5061210;28;20021;-68
2021/03/19 02:13:50;;;;;;;15.38;11.35;;;1.20;99.90;;;;;;5053632;28;20033;-65
2021/03/19 02:16:54;;;;;;;17.92;11.38;;;1.20;99.90;;;;;;5053542;28;20135;-66
2021/03/19 02:19:56;;;;;;;16.98;11.70;;;1.20;99.90;;;;;;5033856;28;20486;-65
2021/03/19 02:22:59;;;;;;;21.67;11.57;;;1.20;99.90;;;;;;5052211;28;20143;-66
2021/03/19 02:26:03;;;;;;;17.08;11.85;;;1.10;99.90;;;;;;5054895;28;20598;-70
2021/03/19 02:29:06;;;;;;;16.88;11.73;;;1.00;99.90;;;;;;5054743;28;20090;-66
2021/03/19 02:32:01;;;;;;;16.17;11.93;;;1.00;99.90;;;;;;5053861;28;20032;-67
2021/03/19 02:34:35;;;;;;;18.15;12.07;;;0.90;99.90;;;;;;5052970;28;20024;-66
2021/03/19 02:37:01;;;;;;;18.42;12.20;;;0.90;99.90;;;;;;5052986;28;20116;-66
2021/03/19 02:39:27;;;;;;;18.17;11.68;;;0.70;99.90;;;;;;5053142;28;20054;-66
2021/03/19 02:41:53;;;;;;;20.65;12.80;;;0.60;99.90;;;;;;5035032;28;20081;-65
2021/03/19 02:44:19;;;;;;;17.35;12.35;;;0.50;99.90;;;;;;5033328;28;20039;-67
2021/03/19 02:46:45;;;;;;;23.15;12.82;;;0.50;99.90;;;;;;5044147;28;20036;-65
2021/03/19 02:49:10;;;;;;;20.23;12.73;;;0.40;99.90;;;;;;5053419;28;20032;-65
2021/03/19 02:51:36;;;;;;;17.05;12.55;;;0.30;99.90;;;;;;5053545;28;20017;-67
2021/03/19 02:54:02;;;;;;;24.10;13.30;;;0.30;99.90;;;;;;5052121;28;20025;-67
2021/03/19 02:56:28;;;;;;;24.63;13.20;;;0.40;99.90;;;;;;5052929;28;20107;-66
2021/03/19 02:58:53;;;;;;;21.90;14.05;;;0.30;99.90;;;;;;5052807;28;20021;-65
2021/03/19 03:01:19;;;;;;;22.88;15.00;;;0.20;99.90;;;;;;5052635;28;20040;-67
2021/03/19 03:03:45;;;;;;;27.00;16.00;;;0.20;99.90;;;;;;5052236;28;20020;-65
2021/03/19 03:06:10;;;;;;;28.27;16.15;;;0.20;99.90;;;;;;5052268;28;20024;-67
2021/03/19 03:08:37;;;;;;;25.83;16.52;;;0.20;99.90;;;;;;5051800;28;20054;-66
2021/03/19 03:11:04;;;;;;;24.35;16.15;;;0.20;99.90;;;;;;5051956;28;20103;-67
2021/03/19 03:13:29;;;;;;;27.98;16.95;;;0.20;99.90;;;;;;5051487;28;20414;-69
2021/03/19 03:15:55;;;;;;;23.15;16.30;;;0.20;99.90;;;;;;5050809;28;20040;-67
2021/03/19 03:18:21;;;;;;;27.08;16.17;;;0.20;99.90;;;;;;5051910;28;20033;-67
2021/03/19 03:20:58;;;;;;;26.70;15.43;;;0.10;99.90;;;;;;5035966;28;20037;-67
2021/03/19 03:23:27;;;;;;;24.25;14.82;;;0.10;99.90;;;;;;5039259;28;20029;-68
2021/03/19 03:25:53;;;;;;;20.95;14.30;;;0.00;99.90;;;;;;5051670;28;20032;-65
2021/03/19 03:28:20;;;;;;;23.65;14.65;;;0.00;99.90;;;;;;5052183;28;20036;-68
2021/03/19 03:30:53;;;;;;;19.60;13.98;;;0.00;99.90;;;;;;5051636;28;20049;-66
2021/03/19 03:33:19;;;;;;;21.48;14.10;;;-0.10;99.90;;;;;;5050165;28;20102;-66
2021/03/19 03:35:46;;;;;;;27.73;15.57;;;-0.20;99.90;;;;;;5051551;28;20036;-67
2021/03/19 03:38:17;;;;;;;27.42;15.10;;;-0.20;99.90;;;;;;5051938;28;20099;-66
2021/03/19 03:40:58;;;;;;;21.17;14.75;;;-0.20;99.90;;;;;;5051683;28;20487;-67
2021/03/19 03:43:24;;;;;;;22.83;14.75;;;-0.20;99.90;;;;;;5050893;28;20048;-68
2021/03/19 03:45:51;;;;;;;27.38;16.42;;;-0.20;99.90;;;;;;5049550;28;20059;-66
2021/03/19 03:48:19;;;;;;;30.60;17.77;;;-0.30;99.90;;;;;;5051606;28;20021;-67
2021/03/19 03:50:45;;;;;;;28.15;17.45;;;-0.30;99.90;;;;;;5051695;28;20511;-67
2021/03/19 03:53:13;;;;;;;29.67;16.85;;;-0.30;99.90;;;;;;5051121;28;20025;-67
2021/03/19 03:55:39;;;;;;;24.67;16.55;;;-0.40;99.90;;;;;;5052196;28;20091;-67
2021/03/19 03:58:06;;;;;;;31.77;18.02;;;-0.40;99.90;;;;;;5053436;28;20492;-67
2021/03/19 04:00:33;;;;;;;31.60;18.92;;;-0.40;99.90;;;;;;5052467;28;20037;-68
2021/03/19 04:03:02;;;;;;;27.67;17.75;;;-0.30;99.90;;;;;;5050310;28;20056;-67
2021/03/19 04:05:31;;;;;;;29.48;17.90;;;-0.40;99.90;;;;;;5050802;28;20035;-68
2021/03/19 04:07:57;;;;;;;28.42;18.63;;;-0.40;99.90;;;;;;5051155;28;20538;-68
2021/03/19 04:10:23;;;;;;;31.30;18.85;;;-0.30;99.90;;;;;;5051502;28;20029;-67
2021/03/19 04:12:49;;;;;;;24.48;17.38;;;-0.40;99.90;;;;;;5049892;28;20029;-68
2021/03/19 04:15:16;;;;;;;33.45;18.30;;;-0.40;99.90;;;;;;5050923;28;20515;-68
2021/03/19 04:17:44;;;;;;;37.97;17.88;;;-0.40;99.90;;;;;;5051462;28;20033;-66
2021/03/19 04:20:12;;;;;;;34.67;19.33;;;-0.40;99.90;;;;;;5050761;28;20745;-67
2021/03/19 04:22:38;;;;;;;29.83;18.38;;;-0.40;99.90;;;;;;5050662;28;20045;-67
2021/03/19 04:25:05;;;;;;;32.83;18.73;;;-0.30;99.90;;;;;;5050391;28;20033;-67
2021/03/19 04:27:34;;;;;;;37.55;20.85;;;-0.30;99.90;;;;;;5051189;28;20029;-67
2021/03/19 04:30:00;;;;;;;39.25;20.60;;;-0.30;99.90;;;;;;5050655;28;20029;-68
2021/03/19 04:32:26;;;;;;;31.88;19.67;;;-0.30;99.90;;;;;;5051083;28;20033;-66
2021/03/19 04:34:53;;;;;;;39.13;20.63;;;-0.20;99.90;;;;;;5051504;28;20104;-66
2021/03/19 04:37:19;;;;;;;39.70;22.05;;;-0.20;99.90;;;;;;5054952;28;20033;-66
2021/03/19 04:39:47;;;;;;;38.30;22.45;;;-0.10;99.90;;;;;;5051877;28;20017;-66
2021/03/19 04:42:13;;;;;;;40.42;21.58;;;0.00;99.90;;;;;;5034854;28;20447;-66
2021/03/19 04:44:44;;;;;;;36.22;22.42;;;0.00;99.90;;;;;;5038518;28;20103;-66
2021/03/19 04:47:11;;;;;;;35.80;21.27;;;0.10;99.90;;;;;;5054786;28;20032;-68
2021/03/19 04:49:37;;;;;;;33.33;19.92;;;0.10;99.90;;;;;;5054942;28;20029;-66
2021/03/19 04:52:04;;;;;;;31.00;19.90;;;0.10;99.90;;;;;;5054983;28;20494;-67
2021/03/19 04:54:30;;;;;;;34.33;20.75;;;0.10;99.90;;;;;;5055167;28;20020;-68
2021/03/19 04:56:56;;;;;;;31.70;20.15;;;0.10;99.90;;;;;;5073497;28;20158;-67
2021/03/19 04:59:22;;;;;;;33.08;18.95;;;0.10;99.90;;;;;;5070438;28;20025;-67
2021/03/19 05:01:50;;;;;;;31.88;20.23;;;0.20;99.90;;;;;;5046510;28;20133;-67
2021/03/19 05:04:17;;;;;;;37.15;20.20;;;0.20;99.90;;;;;;5034735;28;20025;-67
2021/03/19 05:06:43;;;;;;;35.72;20.30;;;0.30;99.90;;;;;;5065057;28;20013;-67
2021/03/19 05:09:08;;;;;;;31.58;19.63;;;0.30;99.90;;;;;;5071322;28;20029;-66
2021/03/19 05:11:36;;;;;;;31.67;19.63;;;0.30;99.90;;;;;;5060464;28;20459;-66
2021/03/19 05:14:02;;;;;;;31.52;19.08;;;0.30;99.90;;;;;;5056252;28;20035;-68
2021/03/19 05:16:27;;;;;;;39.30;20.52;;;0.30;99.90;;;;;;5054710;28;20036;-68
2021/03/19 05:18:53;;;;;;;36.50;20.58;;;0.40;99.90;;;;;;5055770;28;20104;-67
2021/03/19 05:21:19;;;;;;;34.80;20.00;;;0.40;99.90;;;;;;5053247;28;20029;-68
2021/03/19 05:23:44;;;;;;;28.77;17.90;;;0.40;99.90;;;;;;5051992;28;20033;-70
2021/03/19 05:26:10;;;;;;;33.38;17.70;;;0.50;99.90;;;;;;5053956;28;20033;-67
2021/03/19 05:28:36;;;;;;;30.52;18.05;;;0.50;99.90;;;;;;5054003;28;20111;-67
2021/03/19 05:31:02;;;;;;;31.95;18.10;;;0.50;99.90;;;;;;5041351;28;20065;-67
2021/03/19 05:33:49;;;;;;;29.75;17.95;;;0.50;99.90;;;;;;5044981;28;20021;-68
2021/03/19 05:36:17;;;;;;;30.55;19.17;;;0.50;99.90;;;;;;5054166;28;20056;-68
2021/03/19 05:38:42;;;;;;;27.58;16.83;;;0.60;99.90;;;;;;5052849;28;20052;-67
2021/03/19 05:41:10;;;;;;;27.35;16.65;;;0.60;99.90;;;;;;5054542;28;20071;-69
2021/03/19 05:43:42;;;;;;;23.92;17.15;;;0.60;99.90;;;;;;5052838;28;20403;-67
2021/03/19 05:46:13;;;;;;;23.13;16.35;;;0.60;99.90;;;;;;5051765;28;20063;-68
2021/03/19 05:48:41;;;;;;;29.47;18.50;;;0.60;99.90;;;;;;5054080;28;20033;-68
2021/03/19 05:51:17;;;;;;;25.70;16.95;;;0.70;99.90;;;;;;5053579;28;20025;-65
2021/03/19 05:53:49;;;;;;;30.33;19.88;;;0.90;99.90;;;;;;5050940;28;20025;-66
2021/03/19 05:56:16;;;;;;;32.97;19.50;;;0.90;99.90;;;;;;5052824;28;20056;-67
2021/03/19 05:58:44;;;;;;;29.48;20.13;;;1.00;99.90;;;;;;5054735;28;20060;-66
2021/03/19 06:01:10;;;;;;;27.90;18.95;;;1.10;99.90;;;;;;5055416;28;20088;-66
2021/03/19 06:03:36;;;;;;;28.92;20.38;;;1.10;99.90;;;;;;5058845;28;20614;-69
2021/03/19 06:06:09;;;;;;;34.95;21.58;;;1.20;99.90;;;;;;5059558;28;20052;-66
2021/03/19 06:08:36;;;;;;;32.15;23.77;;;1.20;99.90;;;;;;5055531;28;20380;-66
2021/03/19 06:11:20;;;;;;;30.70;22.00;;;1.40;99.90;;;;;;5053602;28;20071;-66
2021/03/19 06:14:01;;;;;;;28.80;20.85;;;1.30;99.90;;;;;;5052227;28;20024;-65
2021/03/19 06:16:44;;;;;;;29.17;20.98;;;1.60;99.90;;;;;;5043869;28;20033;-69
2021/03/19 06:19:32;;;;;;;30.35;21.00;;;1.80;99.90;;;;;;5033922;28;20026;-69
2021/03/19 06:22:18;;;;;;;35.42;20.65;;;2.00;99.90;;;;;;5035138;28;20040;-65
2021/03/19 06:25:02;;;;;;;29.52;20.23;;;2.10;99.90;;;;;;5053304;28;20037;-66
2021/03/19 06:27:47;;;;;;;27.27;19.75;;;2.10;99.90;;;;;;5061597;28;20036;-66
2021/03/19 06:30:33;;;;;;;29.33;17.27;;;2.20;99.90;;;;;;5078054;28;20020;-65
2021/03/19 06:33:12;;;;;;;25.73;17.80;;;2.30;99.90;;;;;;5058284;28;20143;-66
2021/03/19 06:35:40;;;;;;;21.83;16.33;;;2.30;99.90;;;;;;5041687;28;20036;-69
2021/03/19 06:38:31;;;;;;;24.08;15.95;;;2.30;99.90;;;;;;5056024;28;20029;-68
2021/03/19 06:41:18;;;;;;;27.25;16.83;;;2.30;99.90;;;;;;5034948;28;20051;-66
2021/03/19 06:43:44;;;;;;;23.67;15.40;;;2.40;99.90;;;;;;5034688;28;20033;-67
2021/03/19 06:46:23;;;;;;;19.92;15.60;;;2.40;99.90;;;;;;5039914;28;20049;-67
2021/03/19 06:48:55;;;;;;;21.02;15.75;;;2.50;99.90;;;;;;5055511;28;20533;-68
2021/03/19 06:51:35;;;;;;;19.20;14.95;;;2.70;99.90;;;;;;5054715;28;20040;-68
2021/03/19 06:54:03;;;;;;;21.95;15.43;;;2.80;99.90;;;;;;5054813;28;20021;-68
2021/03/19 06:56:29;;;;;;;20.13;14.50;;;2.70;99.90;;;;;;5053823;28;20479;-68
2021/03/19 06:58:56;;;;;;;21.85;14.55;;;2.80;99.90;;;;;;5052756;28;20089;-67
2021/03/19 07:01:37;;;;;;;19.95;14.95;;;2.80;99.90;;;;;;5053962;28;20094;-67
2021/03/19 07:04:24;;;;;;;21.92;14.75;;;2.80;99.90;;;;;;5032399;28;20694;-67
2021/03/19 07:07:28;;;;;;;26.88;14.00;;;2.90;99.90;;;;;;5034112;28;20108;-67
2021/03/19 07:10:21;;;;;;;20.13;14.98;;;3.00;99.90;;;;;;5037333;28;20017;-68
2021/03/19 07:13:09;;;;;;;16.30;11.82;;;2.90;99.90;;;;;;5052671;28;20047;-69
2021/03/19 07:16:03;;;;;;;20.35;12.85;;;2.90;99.90;;;;;;5051223;28;20209;-67
2021/03/19 07:18:44;;;;;;;17.50;13.10;;;3.10;99.90;;;;;;5025296;28;20044;-68
2021/03/19 07:21:42;;;;;;;16.63;12.48;;;3.10;99.90;;;;;;5032860;28;20061;-68
2021/03/19 07:24:43;;;;;;;19.42;13.45;;;3.30;99.90;;;;;;5052486;28;20045;-69
2021/03/19 07:27:35;;;;;;;22.85;13.25;;;3.50;99.90;;;;;;5028158;28;20071;-69
2021/03/19 07:30:21;;;;;;;16.60;12.02;;;3.70;99.90;;;;;;5040907;28;20068;-69
2021/03/19 07:32:50;;;;;;;16.90;12.60;;;3.70;99.90;;;;;;5053129;28;20075;-69
2021/03/19 07:35:27;;;;;;;17.35;12.27;;;3.90;99.90;;;;;;5059488;28;20057;-69
2021/03/19 07:38:14;;;;;;;17.02;11.65;;;3.90;99.90;;;;;;5072253;28;20024;-68
2021/03/19 07:40:40;;;;;;;15.40;10.73;;;3.70;99.90;;;;;;5072263;28;20045;-68
2021/03/19 07:43:24;;;;;;;17.20;12.00;;;3.60;99.90;;;;;;5060802;28;20104;-69
2021/03/19 07:46:04;;;;;;;19.13;12.50;;;3.80;99.90;;;;;;5046885;28;20607;-68
2021/03/19 07:48:55;;;;;;;16.73;12.02;;;3.50;99.90;;;;;;5038810;28;20048;-68
2021/03/19 07:51:31;;;;;;;17.13;12.23;;;3.80;99.90;;;;;;5052093;28;20025;-67
2021/03/19 07:54:07;;;;;;;18.85;12.57;;;3.80;99.90;;;;;;5051645;28;20377;-68
2021/03/19 07:56:51;;;;;;;17.45;11.57;;;3.90;99.90;;;;;;5052296;28;20104;-69
2021/03/19 08:00:07;;;;;;;18.77;12.38;;;3.60;99.90;;;;;;5050880;28;20025;-69
2021/03/19 08:02:57;;;;;;;17.02;13.02;;;3.60;99.90;;;;;;5025810;28;20041;-69
2021/03/19 08:05:40;;;;;;;15.93;11.52;;;3.60;99.90;;;;;;5050909;28;20029;-69
2021/03/19 08:08:13;;;;;;;16.13;12.52;;;3.80;99.90;;;;;;5052007;28;20025;-68
2021/03/19 08:10:51;;;;;;;17.77;13.13;;;3.70;99.90;;;;;;5055173;28;20036;-69
2021/03/19 08:13:22;;;;;;;15.73;12.25;;;3.70;99.90;;;;;;5053763;28;20021;-69
2021/03/19 08:15:54;;;;;;;19.08;12.75;;;3.60;99.90;;;;;;5035637;28;20033;-70
2021/03/19 08:18:29;;;;;;;19.42;11.98;;;3.70;99.90;;;;;;5036509;28;20030;-69
2021/03/19 08:21:32;;;;;;;16.92;12.75;;;3.60;99.90;;;;;;5037193;28;20473;-69
2021/03/19 08:24:05;;;;;;;18.52;12.88;;;3.60;99.90;;;;;;5049763;28;20037;-67
2021/03/19 08:26:47;;;;;;;18.83;13.63;;;3.70;99.90;;;;;;5056695;28;20032;-69
2021/03/19 08:29:31;;;;;;;19.23;13.55;;;4.00;99.90;;;;;;5055982;28;20040;-69
2021/03/19 08:32:12;;;;;;;20.30;12.93;;;3.90;99.90;;;;;;5056006;28;20100;-67
2021/03/19 08:34:44;;;;;;;16.30;12.05;;;4.30;99.90;;;;;;5053427;28;20033;-68
2021/03/19 08:37:38;;;;;;;19.08;12.55;;;4.50;99.90;;;;;;5054978;28;20133;-68
2021/03/19 08:40:12;;;;;;;14.23;11.07;;;4.60;99.90;;;;;;5055667;28;20037;-68
2021/03/19 08:42:47;;;;;;;16.27;9.82;;;4.70;99.90;;;;;;5055084;28;20035;-69
2021/03/19 08:45:21;;;;;;;13.43;10.30;;;5.30;99.90;;;;;;5056061;28;20025;-66
2021/03/19 08:47:50;;;;;;;21.30;13.20;;;5.10;99.90;;;;;;5055820;28;20029;-68
2021/03/19 08:50:37;;;;;;;25.73;12.95;;;5.20;99.90;;;;;;5055571;28;20047;-68
2021/03/19 08:53:15;;;;;;;16.50;10.68;;;5.30;99.90;;;;;;5055718;28;20036;-69
2021/03/19 08:56:09;;;;;;;17.08;11.38;;;5.30;99.90;;;;;;5053323;28;20033;-67
2021/03/19 08:58:47;;;;;;;15.88;10.65;;;5.40;99.90;;;;;;5053994;28;20042;-69
2021/03/19 09:01:33;;;;;;;35.28;12.85;;;5.50;99.90;;;;;;5054299;28;20053;-68
2021/03/19 09:03:59;;;;;;;20.25;10.50;;;5.50;99.90;;;;;;5033937;28;20029;-68
2021/03/19 09:06:28;;;;;;;16.00;10.35;;;5.70;99.90;;;;;;5034614;28;20498;-69
2021/03/19 09:08:56;;;;;;;15.60;10.00;;;5.60;99.90;;;;;;5034112;28;20026;-69
2021/03/19 09:11:38;;;;;;;10.55;8.30;;;5.50;99.90;;;;;;5041424;28;20028;-69
2021/03/19 09:14:04;;;;;;;13.63;9.55;;;5.50;99.90;;;;;;5055769;28;20017;-68
2021/03/19 09:16:50;;;;;;;10.60;9.32;;;5.50;99.90;;;;;;5056072;28;20044;-68
2021/03/19 09:19:42;;;;;;;12.02;8.18;;;5.60;99.90;;;;;;5039682;28;20049;-67
2021/03/19 09:22:24;;;;;;;11.70;9.75;;;5.70;99.90;;;;;;5041224;28;20051;-68
2021/03/19 09:25:08;;;;;;;16.85;12.27;;;5.70;99.90;;;;;;5043311;28;20036;-69
2021/03/19 09:27:36;;;;;;;8.45;7.50;;;5.90;99.90;;;;;;5035403;28;20061;-69
2021/03/19 09:30:20;;;;;;;14.30;8.45;;;5.70;99.90;;;;;;5033166;28;20424;-68
2021/03/19 09:32:49;;;;;;;14.52;8.88;;;5.60;99.90;;;;;;5045984;28;20033;-68
2021/03/19 09:35:38;;;;;;;12.50;10.65;;;5.90;99.90;;;;;;5053242;28;20049;-67
2021/03/19 09:38:22;;;;;;;14.00;7.78;;;6.30;99.90;;;;;;5043774;28;20392;-68
2021/03/19 09:40:51;;;;;;;8.23;6.95;;;6.60;99.90;;;;;;5053415;28;20025;-67
2021/03/19 09:43:32;;;;;;;7.53;6.25;;;7.00;99.90;;;;;;5052925;28;20029;-68
2021/03/19 09:46:23;;;;;;;12.02;7.32;;;6.40;99.90;;;;;;5051965;28;20108;-68
2021/03/19 09:49:21;;;;;;;8.30;6.78;;;6.50;99.90;;;;;;5053693;28;20085;-69
2021/03/19 09:51:47;;;;;;;10.07;7.40;;;6.00;99.90;;;;;;5054159;28;20017;-67
2021/03/19 09:54:28;;;;;;;8.73;7.80;;;5.60;99.90;;;;;;5052772;28;20028;-68
2021/03/19 09:57:00;;;;;;;9.82;8.18;;;5.30;99.90;;;;;;5053699;28;20025;-67
2021/03/19 09:59:29;;;;;;;10.57;8.98;;;5.00;99.90;;;;;;5056868;28;20039;-69
2021/03/19 10:01:56;;;;;;;12.50;9.65;;;5.00;99.90;;;;;;5057312;28;20033;-69
2021/03/19 10:04:38;;;;;;;23.05;10.30;;;5.10;99.90;;;;;;5049388;28;20072;-68
2021/03/19 10:07:22;;;;;;;25.85;10.43;;;5.20;99.90;;;;;;5036990;28;20021;-69
2021/03/19 10:09:54;;;;;;;21.90;9.95;;;5.20;99.90;;;;;;5036277;28;20076;-67
2021/03/19 10:12:22;;;;;;;23.80;10.60;;;5.20;99.90;;;;;;5036833;28;20071;-69
2021/03/19 10:14:55;;;;;;;10.35;8.80;;;5.30;99.90;;;;;;5039024;28;20033;-68
2021/03/19 10:17:28;;;;;;;13.98;8.32;;;5.30;99.90;;;;;;5037861;28;20055;-68
2021/03/19 10:19:59;;;;;;;42.67;10.80;;;5.20;99.90;;;;;;5034995;28;20033;-69
2021/03/19 10:22:30;;;;;;;17.70;9.65;;;5.30;99.90;;;;;;5036344;28;20036;-69
2021/03/19 10:25:08;;;;;;;12.10;9.27;;;5.60;99.90;;;;;;5053337;28;20040;-69
2021/03/19 10:27:45;;;;;;;8.88;7.53;;;5.80;99.90;;;;;;5054525;28;20041;-70
2021/03/19 10:30:22;;;;;;;9.82;8.20;;;5.90;99.90;;;;;;5052733;28;20021;-70
2021/03/19 10:32:48;;;;;;;10.90;8.35;;;5.60;99.90;;;;;;5053191;28;20021;-70
2021/03/19 10:35:30;;;;;;;11.63;8.80;;;5.60;99.90;;;;;;5053389;28;20085;-69
2021/03/19 10:38:07;;;;;;;11.90;8.77;;;6.10;99.90;;;;;;5054335;28;20028;-69
2021/03/19 10:40:38;;;;;;;10.00;8.82;;;6.30;99.90;;;;;;5053552;28;20074;-69
2021/03/19 10:43:19;;;;;;;10.00;7.28;;;6.80;99.90;;;;;;5052471;28;20029;-68
2021/03/19 10:46:00;;;;;;;12.93;8.60;;;8.20;99.90;;;;;;5031246;28;20031;-68
2021/03/19 10:48:45;;;;;;;7.70;6.88;;;9.10;99.90;;;;;;5033492;28;20028;-69
2021/03/19 10:51:10;;;;;;;51.10;10.77;;;10.60;99.90;;;;;;5051925;28;20513;-69
2021/03/19 10:53:36;;;;;;;6.88;5.47;;;11.40;99.90;;;;;;5050694;28;20021;-67
2021/03/19 10:56:03;;;;;;;7.90;5.38;;;13.20;99.90;;;;;;5051581;28;20706;-68
2021/03/19 10:58:39;;;;;;;6.50;5.90;;;14.50;99.70;;;;;;5052536;28;20021;-68
2021/03/19 11:01:37;;;;;;;5.93;5.43;;;14.60;91.40;;;;;;5051073;28;20091;-70
2021/03/19 11:04:33;;;;;;;6.78;6.07;;;14.80;90.80;;;;;;5052126;28;20071;-70
2021/03/19 11:07:29;;;;;;;6.28;5.68;;;11.90;93.10;;;;;;5052462;28;20423;-67
2021/03/19 11:10:07;;;;;;;8.95;6.57;;;10.10;96.80;;;;;;5051127;28;20017;-68
2021/03/19 11:12:41;;;;;;;8.85;6.70;;;8.80;99.90;;;;;;5050928;28;20071;-67
2021/03/19 11:15:09;;;;;;;10.55;8.32;;;8.60;99.90;;;;;;5051847;28;20024;-66
2021/03/19 11:17:35;;;;;;;10.00;6.80;;;7.70;99.90;;;;;;5052269;28;20471;-67
2021/03/19 11:20:06;;;;;;;8.13;6.13;;;9.10;99.90;;;;;;5052422;28;20029;-67
2021/03/19 11:22:38;;;;;;;5.97;5.43;;;10.90;98.60;;;;;;5051676;28;20096;-68
2021/03/19 11:25:25;;;;;;;5.75;4.85;;;11.40;96.70;;;;;;5053552;28;20025;-68
2021/03/19 11:27:52;;;;;;;4.78;4.38;;;10.50;97.30;;;;;;5056090;28;20025;-67
2021/03/19 11:30:24;;;;;;;5.35;4.85;;;9.50;97.30;;;;;;5052228;28;20169;-68
2021/03/19 11:33:22;;;;;;;4.70;4.30;;;9.90;98.00;;;;;;5049803;28;20025;-67
2021/03/19 11:36:13;;;;;;;4.03;3.72;;;9.10;99.20;;;;;;5018630;28;20394;-67
2021/03/19 11:38:40;;;;;;;4.05;3.67;;;9.60;99.20;;;;;;5051443;28;20029;-69
2021/03/19 11:41:28;;;;;;;3.92;3.63;;;11.60;95.10;;;;;;5052065;28;20029;-67
2021/03/19 11:43:54;;;;;;;3.33;3.13;;;12.70;92.50;;;;;;5051089;28;20498;-68
2021/03/19 11:46:21;;;;;;;12.88;4.00;;;12.70;90.90;;;;;;5050990;28;20021;-67
2021/03/19 11:48:48;;;;;;;6.68;4.60;;;12.30;91.40;;;;;;5049945;28;20021;-67
2021/03/19 11:51:23;;;;;;;5.20;4.75;;;10.50;93.30;;;;;;5052106;28;20100;-67
2021/03/19 11:53:49;;;;;;;6.80;6.10;;;9.10;96.80;;;;;;5050979;28;20040;-67
2021/03/19 11:56:14;;;;;;;6.20;5.53;;;8.10;99.90;;;;;;5052219;28;20468;-66
2021/03/19 11:58:41;;;;;;;7.20;6.47;;;7.10;99.90;;;;;;5054125;28;20083;-67
2021/03/19 12:01:09;;;;;;;6.57;5.72;;;6.70;99.90;;;;;;5061679;28;20025;-67
2021/03/19 12:03:39;;;;;;;5.65;5.15;;;6.30;99.90;;;;;;5063096;28;20029;-67
2021/03/19 12:06:06;;;;;;;5.80;5.20;;;6.00;99.90;;;;;;5061039;28;20067;-68
2021/03/19 12:08:33;;;;;;;5.07;4.65;;;5.90;99.90;;;;;;5056552;28;20025;-66
2021/03/19 12:11:00;;;;;;;5.72;5.13;;;5.70;99.90;;;;;;5050119;28;20024;-68
2021/03/19 12:13:26;;;;;;;6.15;5.45;;;5.80;99.90;;;;;;5050748;28;20017;-67
2021/03/19 12:15:52;;;;;;;6.03;5.40;;;5.80;99.90;;;;;;5036010;28;20029;-67
2021/03/19 12:18:21;;;;;;;4.22;3.83;;;6.00;99.90;;;;;;5031399;28;20037;-67
2021/03/19 12:20:47;;;;;;;4.90;4.07;;;6.20;99.90;;;;;;5033336;28;20036;-67
2021/03/19 12:23:14;;;;;;;4.38;3.97;;;6.00;99.90;;;;;;5050496;28;20028;-68
2021/03/19 12:25:41;;;;;;;4.60;4.20;;;6.20;99.90;;;;;;5051019;28;20056;-67
2021/03/19 12:28:16;;;;;;;4.47;4.07;;;6.50;99.90;;;;;;5050794;28;20472;-66
2021/03/19 12:30:42;;;;;;;4.60;4.20;;;6.50;99.90;;;;;;5051377;28;20021;-69
2021/03/19 12:33:08;;;;;;;5.93;5.32;;;6.50;99.90;;;;;;5050558;28;20032;-67
2021/03/19 12:35:35;;;;;;;5.35;4.85;;;6.80;99.90;;;;;;5050231;28;20028;-66
2021/03/19 12:38:01;;;;;;;4.82;4.43;;;7.00;99.90;;;;;;5051054;28;20024;-67
2021/03/19 12:40:28;;;;;;;3.80;3.50;;;7.50;99.90;;;;;;5050334;28;20021;-67
2021/03/19 12:42:54;;;;;;;4.38;3.97;;;8.70;99.90;;;;;;5050626;28;20021;-68
2021/03/19 12:45:24;;;;;;;4.18;3.78;;;8.60;99.90;;;;;;5044946;28;20033;-67
2021/03/19 12:47:49;;;;;;;3.72;3.42;;;8.80;99.90;;;;;;5048780;28;20017;-68
2021/03/19 12:50:20;;;;;;;3.20;3.00;;;8.50;99.90;;;;;;5047629;28;20040;-66
2021/03/19 12:52:46;;;;;;;3.60;3.30;;;8.50;99.90;;;;;;5050110;28;20075;-66
2021/03/19 12:55:12;;;;;;;3.88;3.58;;;10.10;99.90;;;;;;5050479;28;20029;-67
2021/03/19 12:57:38;;;;;;;4.65;3.92;;;12.50;96.90;;;;;;5054674;28;20127;-67
2021/03/19 13:00:05;;;;;;;4.40;4.00;;;14.70;92.00;;;;;;5060119;28;20028;-68
2021/03/19 13:02:31;;;;;;;4.38;3.97;;;14.10;88.40;;;;;;5051545;28;20045;-69
2021/03/19 13:04:57;;;;;;;3.95;3.65;;;12.90;91.00;;;;;;5051532;28;20021;-70
2021/03/19 13:07:22;;;;;;;4.90;4.13;;;12.70;93.30;;;;;;5037316;28;20548;-69
2021/03/19 13:09:48;;;;;;;4.70;4.30;;;11.80;91.90;;;;;;5043208;28;20086;-71
2021/03/19 13:12:15;;;;;;;4.70;4.25;;;10.30;94.20;;;;;;5049145;28;20030;-70
2021/03/19 13:14:41;;;;;;;5.85;5.25;;;9.80;95.80;;;;;;5038061;28;20108;-69
2021/03/19 13:17:06;;;;;;;5.22;4.75;;;9.00;96.80;;;;;;5042495;28;20169;-68